Estación Meteorológica Peña el Pijo (Robertgarden) [ 11/17/17 23:45:28 CET ]

Fecha Hora Presion(HPa) Temp (°C) Humedad % Rocio (°C) Viento ( m/s) Direccion Lluvia 1Hora(mm) Lluvia 24H(mm) LLuvia Total(mm)
2017-Aug-01 01:01:48 1008.600 19.3 57 10.6         1437.96
2017-Aug-01 02:01:44 1008.300 18.2 59 10.0         1437.96
2017-Aug-01 03:01:15 1008.200 16.9 61 9.3         1437.96
2017-Aug-01 04:03:05 1008.100 16.5 59 8.5         1437.96
2017-Aug-01 05:01:15 1007.900 16.3 60 8.6         1437.96
2017-Aug-01 06:01:14 1008.300 16.3 58 8.0         1437.96
2017-Aug-01 07:01:46 1008.500 15.6 62 8.4         1437.96
2017-Aug-01 08:02:07 1008.700 17.1 60 9.3         1437.96
2017-Aug-01 09:01:43 1009.100 20.5 57 11.7         1437.96
2017-Aug-01 10:01:53 1009.000 28.1 39 12.8         1437.96
2017-Aug-01 11:01:43 1009.100 31.0 30 11.4         1437.96
2017-Aug-01 12:02:00 1009.500 32.7 25 9.9         1437.96
2017-Aug-01 13:01:39 1010.300 28.3 33 10.4         1437.96
2017-Aug-01 14:02:01 1010.900 28.5 35 11.4         1437.96
2017-Aug-01 15:01:43 1010.500 28.4 37 12.2         1437.96
2017-Aug-01 16:01:51 1009.600 29.8 25 7.4         1437.96
2017-Aug-01 17:02:01 1010.000 29.9 27 8.7         1437.96
2017-Aug-01 18:01:46 1009.600 30.2 23 6.6         1437.96
2017-Aug-01 19:01:42 1009.500 30.4 22 6.1 2.0 WNW     1437.96
2017-Aug-01 20:01:44 1010.200 29.9 23 6.3         1437.96
2017-Aug-01 21:01:36 1010.600 29.6 23 6.1         1437.96
2017-Aug-01 22:01:56 1011.800 24.5 63 17.0         1437.96
2017-Aug-01 23:02:05 1012.200 25.1 49 13.6         1437.96

Temperatura Máxima:32°    Temperatura Mínima:15°
Presión Máxima:1012.200 Hpa    Presión Mínima:1007.900 Hpa


Volver